Lowden, Washington
Current Conditions -  °F | °C
As of 7:53 AM on Monday 22 Dec 2014 (Local Time) from KALW Reporting Station
Broken Clouds Broken Clouds  
Wind Chill: 38°   Ceiling: 6000
Heat Index: 43°   Visibility: 10mi
Dew Point: 39°   Wind: 8mph
Humidity: 86%   Direction: 170°S
Pressure: 30.2"   Gusts: NA
Location:  46.1196°N, 118.708°W
Report Text: KALW 221553Z 17007KT 10SM BKN060 06/04 A3020 RMK AO2 SLP230 T00610039
Loading
Personal Weather Stations






























Interactive Weather Map New forecast layout! Learn more

10-Day Weather Forecast

Advertisements
Track Severe Weather on mobile